Time;durP1;ratioP1;P1;durP2;ratioP2;P2;SDS_P1;SDS_P2;PMS_P1;PMS_P2;Temp;Humidity;BMP_temperature;BMP_pressure;BME280_temperature;BME280_humidity;BME280_pressure;Samples;Min_cycle;Max_cycle;Signal;HPM_P1;HPM_P2
2022/04/19 00:01:23;;;;;;;4.43;2.10;;;;;;;11.13;29.29;100919.72;5032603;28;20511;-73
2022/04/19 00:03:49;;;;;;;4.10;2.30;;;;;;;11.49;28.72;100924.13;5030295;28;20228;-72
2022/04/19 00:06:16;;;;;;;3.90;2.13;;;;;;;11.51;28.89;100922.94;5032374;28;20111;-72
2022/04/19 00:08:42;;;;;;;5.10;2.17;;;;;;;11.57;28.64;100924.16;5032530;28;20128;-73
2022/04/19 00:11:09;;;;;;;5.05;2.15;;;;;;;11.57;28.61;100911.53;5032324;28;20121;-72
2022/04/19 00:13:35;;;;;;;5.43;2.42;;;;;;;11.34;29.01;100919.31;5012425;28;20505;-72
2022/04/19 00:16:02;;;;;;;9.40;2.03;;;;;;;11.31;29.00;100917.00;5011775;28;20056;-72
2022/04/19 00:18:29;;;;;;;6.43;1.77;;;;;;;11.36;29.24;100908.44;5016080;28;20049;-72
2022/04/19 00:20:56;;;;;;;3.65;2.13;;;;;;;11.25;29.46;100914.94;5030825;28;20041;-72
2022/04/19 00:23:22;;;;;;;5.55;2.42;;;;;;;11.27;29.52;100901.34;5031490;28;20095;-71
2022/04/19 00:25:52;;;;;;;3.30;2.05;;;;;;;11.27;29.41;100912.91;5031549;28;20041;-72
2022/04/19 00:28:19;;;;;;;3.15;1.80;;;;;;;11.16;29.43;100902.47;5030016;28;20065;-72
2022/04/19 00:30:47;;;;;;;4.20;2.45;;;;;;;10.56;30.44;100911.28;5031632;28;20053;-72
2022/04/19 00:33:14;;;;;;;3.60;1.92;;;;;;;10.28;30.98;100897.94;5031546;28;20120;-73
2022/04/19 00:35:40;;;;;;;5.47;2.38;;;;;;;10.76;30.39;100906.59;5031646;28;20482;-72
2022/04/19 00:38:07;;;;;;;4.53;2.08;;;;;;;10.82;30.25;100894.34;5031469;28;20494;-72
2022/04/19 00:40:34;;;;;;;7.00;2.10;;;;;;;10.86;30.34;100901.09;5031436;28;20164;-73
2022/04/19 00:43:00;;;;;;;6.13;2.13;;;;;;;10.31;31.08;100904.84;5031509;28;20498;-73
2022/04/19 00:45:27;;;;;;;7.35;2.47;;;;;;;10.72;30.60;100892.63;5031251;28;20042;-73
2022/04/19 00:47:54;;;;;;;3.92;2.30;;;;;;;10.00;31.59;100894.50;5031549;28;20081;-73
2022/04/19 00:50:24;;;;;;;4.05;2.00;;;;;;;10.46;30.95;100895.25;5031034;28;20064;-72
2022/04/19 00:52:52;;;;;;;4.45;2.13;;;;;;;10.70;30.56;100889.25;5031094;28;20072;-73
2022/04/19 00:55:18;;;;;;;2.88;1.63;;;;;;;10.67;30.72;100894.94;5021720;28;20076;-72
2022/04/19 00:57:46;;;;;;;5.18;2.30;;;;;;;9.87;31.77;100899.38;5028513;28;20128;-73
2022/04/19 01:00:13;;;;;;;5.18;2.10;;;;;;;9.98;31.49;100892.97;5030117;28;20103;-73
2022/04/19 01:02:40;;;;;;;5.50;1.90;;;;;;;9.82;31.73;100895.47;5030273;28;20556;-72
2022/04/19 01:15:19;;;;;;;4.75;2.17;;;;;;;9.76;32.10;100891.56;5011913;28;20056;-72
2022/04/19 01:17:47;;;;;;;7.47;2.55;;;;;;;9.76;32.03;100886.22;5018365;28;20069;-72
2022/04/19 01:20:13;;;;;;;3.95;1.95;;;;;;;9.63;32.14;100896.44;5021575;28;20053;-72
2022/04/19 01:22:41;;;;;;;3.80;2.25;;;;;;;9.87;31.95;100898.56;5030210;28;20088;-71
2022/04/19 01:25:10;;;;;;;7.95;2.30;;;;;;;9.61;32.40;100901.09;5030300;28;20124;-72
2022/04/19 01:27:37;;;;;;;4.50;2.42;;;;;;;9.48;32.52;100888.91;5010181;28;20082;-72
2022/04/19 01:30:06;;;;;;;7.55;2.60;;;;;;;9.73;32.37;100894.53;5010749;28;20045;-72
2022/04/19 01:32:32;;;;;;;6.95;2.38;;;;;;;9.38;32.45;100893.47;5010722;28;20136;-71
2022/04/19 01:35:08;;;;;;;3.97;2.00;;;;;;;9.41;32.81;100893.19;5021436;28;20225;-71
2022/04/19 01:37:37;;;;;;;3.83;2.10;;;;;;;9.56;32.63;100886.31;5029840;28;20132;-72
2022/04/19 01:40:17;;;;;;;3.80;2.00;;;;;;;9.37;32.86;100889.13;5030928;28;20049;-73
2022/04/19 01:42:50;;;;;;;6.30;2.25;;;;;;;9.70;32.50;100892.16;5030929;28;20129;-73
2022/04/19 01:45:19;;;;;;;5.47;2.20;;;;;;;9.49;32.91;100885.22;5030134;28;20140;-72
2022/04/19 01:47:45;;;;;;;5.20;2.30;;;;;;;8.75;34.15;100885.22;5030262;28;20041;-72
2022/04/19 01:50:13;;;;;;;5.40;1.90;;;;;;;9.24;33.43;100881.41;5030621;28;20077;-72
2022/04/19 01:52:41;;;;;;;4.35;2.28;;;;;;;9.35;33.38;100879.53;5030346;28;20445;-73
2022/04/19 01:55:11;;;;;;;4.30;2.17;;;;;;;9.11;33.52;100888.06;5030448;28;20132;-73
2022/04/19 01:57:38;;;;;;;5.85;2.03;;;;;;;9.31;33.57;100881.66;5029573;28;20053;-73
2022/04/19 02:00:05;;;;;;;3.97;2.15;;;;;;;8.96;34.03;100877.81;5029522;28;20166;-72
2022/04/19 02:02:35;;;;;;;4.18;2.17;;;;;;;8.93;34.27;100883.47;5029008;28;20379;-72
2022/04/19 02:05:02;;;;;;;6.85;2.45;;;;;;;8.92;33.83;100883.59;5029045;28;20049;-72
2022/04/19 02:07:28;;;;;;;7.35;2.45;;;;;;;9.02;34.15;100869.22;5028698;28;20103;-72
2022/04/19 02:09:55;;;;;;;5.05;2.15;;;;;;;9.04;34.12;100869.06;5029275;28;20517;-73
2022/04/19 02:12:24;;;;;;;5.05;2.40;;;;;;;8.49;34.77;100876.94;5021409;28;20128;-72
2022/04/19 02:14:50;;;;;;;5.38;2.50;;;;;;;8.92;34.83;100871.09;5028538;28;20045;-72
2022/04/19 02:17:21;;;;;;;3.60;2.13;;;;;;;8.80;34.65;100866.88;5029465;28;20049;-71
2022/04/19 02:19:47;;;;;;;6.43;2.22;;;;;;;9.15;33.92;100866.19;5027475;28;20136;-72
2022/04/19 02:22:14;;;;;;;5.53;2.40;;;;;;;8.77;34.61;100864.50;5028796;28;20045;-71
2022/04/19 02:24:40;;;;;;;10.20;2.78;;;;;;;8.99;34.31;100855.25;5025637;28;20077;-72
2022/04/19 02:27:07;;;;;;;7.55;2.67;;;;;;;9.19;34.08;100858.72;5031593;28;20528;-72
2022/04/19 02:29:33;;;;;;;5.45;2.10;;;;;;;9.16;33.84;100861.69;5032774;28;20552;-72
2022/04/19 02:32:00;;;;;;;8.52;2.58;;;;;;;9.42;33.74;100868.06;5034376;28;20128;-72
2022/04/19 02:34:26;;;;;;;6.72;2.95;;;;;;;9.23;33.84;100860.97;5034769;28;20045;-72
2022/04/19 02:36:53;;;;;;;7.68;3.05;;;;;;;9.24;33.86;100864.50;5032748;28;20255;-70
2022/04/19 02:39:20;;;;;;;11.63;2.78;;;;;;;9.14;34.01;100864.50;5032545;28;20445;-72
2022/04/19 02:41:46;;;;;;;5.15;2.47;;;;;;;9.30;33.68;100864.75;5032623;28;20124;-72
2022/04/19 02:44:13;;;;;;;4.07;2.13;;;;;;;8.84;34.13;100868.28;5031815;28;20140;-72
2022/04/19 02:46:39;;;;;;;6.88;2.30;;;;;;;8.94;34.43;100865.56;5031787;28;20124;-72
2022/04/19 02:49:06;;;;;;;5.05;2.63;;;;;;;8.81;34.26;100879.25;5031591;28;20131;-72
2022/04/19 02:51:32;;;;;;;8.27;2.70;;;;;;;8.91;34.20;100873.88;5031340;28;20444;-72
2022/04/19 02:53:59;;;;;;;7.32;2.50;;;;;;;9.33;33.79;100871.63;5032752;28;20049;-72
2022/04/19 02:56:26;;;;;;;6.25;2.35;;;;;;;9.40;33.69;100872.72;5033609;28;20052;-72
2022/04/19 02:58:53;;;;;;;4.82;2.47;;;;;;;9.04;34.11;100872.56;5030819;28;20132;-72
2022/04/19 03:01:19;;;;;;;5.90;2.53;;;;;;;8.94;33.95;100873.59;5031720;28;20541;-72
2022/04/19 03:03:46;;;;;;;7.50;2.50;;;;;;;9.23;33.78;100865.44;5031486;28;20104;-72
2022/04/19 03:06:12;;;;;;;8.32;2.67;;;;;;;9.03;33.91;100859.34;5030952;28;20144;-72
2022/04/19 03:08:39;;;;;;;8.85;2.40;;;;;;;8.97;33.96;100859.94;5031666;28;20420;-72
2022/04/19 03:11:06;;;;;;;5.05;2.72;;;;;;;8.87;34.30;100868.00;5032483;28;20562;-72
2022/04/19 03:13:32;;;;;;;8.52;2.78;;;;;;;8.58;34.53;100863.56;5031427;28;20049;-72
2022/04/19 03:15:59;;;;;;;6.93;2.50;;;;;;;8.56;34.34;100864.69;5031402;28;20046;-71
2022/04/19 03:18:25;;;;;;;4.38;2.30;;;;;;;8.73;34.29;100857.75;5031795;28;20069;-72
2022/04/19 03:20:52;;;;;;;7.15;2.60;;;;;;;8.28;34.94;100850.38;5027661;28;20072;-71
2022/04/19 03:28:48;;;;;;;6.45;2.65;;;;;;;8.79;34.27;100854.50;5030721;28;20068;-71
2022/04/19 03:31:15;;;;;;;4.82;2.28;;;;;;;8.49;34.11;100855.56;5032016;28;20448;-71
2022/04/19 03:33:41;;;;;;;7.25;2.58;;;;;;;8.21;35.21;100859.94;5031389;28;20049;-71
2022/04/19 03:36:08;;;;;;;4.75;2.15;;;;;;;8.21;34.91;100849.25;5031254;28;20136;-71
2022/04/19 03:38:35;;;;;;;5.38;2.70;;;;;;;8.08;35.14;100860.22;5030185;28;20475;-71
2022/04/19 03:41:05;;;;;;;7.05;2.38;;;;;;;8.76;34.27;100860.16;5028153;28;20487;-71
2022/04/19 03:43:32;;;;;;;4.40;2.20;;;;;;;8.51;34.50;100856.25;5030255;28;20493;-71
2022/04/19 03:45:59;;;;;;;6.72;2.72;;;;;;;8.55;34.49;100852.31;5030443;28;20474;-71
2022/04/19 03:48:25;;;;;;;7.40;2.85;;;;;;;8.72;34.12;100861.44;5032992;28;20046;-71
2022/04/19 03:50:52;;;;;;;7.25;2.58;;;;;;;8.25;34.89;100861.34;5030201;28;20049;-73
2022/04/19 03:53:18;;;;;;;5.43;2.38;;;;;;;8.60;34.28;100858.06;5031688;28;20092;-71
2022/04/19 03:55:45;;;;;;;5.82;2.50;;;;;;;8.20;34.95;100859.09;5030340;28;20122;-72
2022/04/19 03:58:11;;;;;;;3.85;2.33;;;;;;;7.99;35.58;100861.91;5030231;28;20137;-72
2022/04/19 04:00:38;;;;;;;7.43;2.75;;;;;;;8.40;34.64;100859.94;5032801;28;20132;-73
2022/04/19 04:03:06;;;;;;;4.72;2.60;;;;;;;8.07;35.21;100866.56;5030467;28;20133;-71
2022/04/19 04:05:33;;;;;;;5.95;2.30;;;;;;;8.23;35.06;100863.34;5030414;28;20508;-71
2022/04/19 04:07:59;;;;;;;4.78;2.30;;;;;;;8.43;34.71;100859.63;5031227;28;20049;-72
2022/04/19 04:10:25;;;;;;;5.15;2.42;;;;;;;8.45;34.72;100865.69;5029994;28;20489;-71
2022/04/19 04:12:52;;;;;;;6.55;3.03;;;;;;;8.46;34.84;100851.31;5029565;28;20409;-72
2022/04/19 04:15:19;;;;;;;8.15;2.35;;;;;;;8.02;35.62;100852.75;5031957;28;20041;-72
2022/04/19 04:17:45;;;;;;;4.90;2.45;;;;;;;7.83;35.95;100859.75;5030941;28;20569;-72
2022/04/19 04:20:11;;;;;;;7.82;3.00;;;;;;;8.08;35.56;100866.41;5031698;28;20042;-72
2022/04/19 04:22:38;;;;;;;4.68;2.30;;;;;;;7.84;35.89;100852.63;5029545;28;20069;-72
2022/04/19 04:25:05;;;;;;;5.93;3.05;;;;;;;8.13;35.43;100861.50;5029919;28;20413;-72
2022/04/19 04:27:31;;;;;;;6.93;3.40;;;;;;;8.04;35.91;100846.31;5031639;28;20092;-72
2022/04/19 04:29:58;;;;;;;6.60;2.88;;;;;;;8.41;34.96;100852.75;5032006;28;20041;-72
2022/04/19 04:32:24;;;;;;;6.10;2.40;;;;;;;8.25;35.17;100856.84;5032712;28;20129;-72
2022/04/19 04:34:51;;;;;;;5.55;2.65;;;;;;;8.66;34.67;100870.84;5029639;28;20041;-72
2022/04/19 04:37:17;;;;;;;6.85;2.75;;;;;;;8.61;34.72;100871.31;5030665;28;20446;-72
2022/04/19 04:39:44;;;;;;;7.40;2.83;;;;;;;8.34;35.18;100865.84;5031636;28;20055;-72
2022/04/19 04:42:10;;;;;;;8.00;3.30;;;;;;;7.90;36.29;100870.75;5030617;28;20141;-72
2022/04/19 04:44:37;;;;;;;13.07;3.22;;;;;;;7.88;35.93;100864.69;5031257;28;20653;-72
2022/04/19 04:49:49;;;;;;;12.18;3.13;;;;;;;8.29;35.69;100868.09;5031659;28;20136;-72
2022/04/19 04:52:15;;;;;;;7.97;3.22;;;;;;;7.97;35.92;100873.72;5031536;28;20045;-72
2022/04/19 04:54:43;;;;;;;10.90;2.90;;;;;;;8.25;35.69;100867.53;5030667;28;20072;-72
2022/04/19 04:57:09;;;;;;;6.95;2.90;;;;;;;7.73;36.99;100868.75;5030352;28;20390;-72
2022/04/19 04:59:37;;;;;;;5.93;2.78;;;;;;;8.37;36.14;100873.59;5030672;28;20045;-72
2022/04/19 05:02:04;;;;;;;5.55;3.13;;;;;;;8.50;35.55;100866.09;5030719;28;20079;-72
2022/04/19 05:04:32;;;;;;;5.82;2.75;;;;;;;8.24;36.02;100870.34;5031598;28;20064;-73
2022/04/19 05:07:00;;;;;;;5.38;3.22;;;;;;;8.41;35.77;100866.13;5032372;28;20056;-73
2022/04/19 05:09:27;;;;;;;9.65;3.10;;;;;;;8.57;35.46;100872.59;5029740;28;20076;-74
2022/04/19 05:11:53;;;;;;;10.43;3.58;;;;;;;8.70;35.37;100872.25;5029593;28;20041;-74
2022/04/19 05:14:20;;;;;;;9.85;3.22;;;;;;;8.56;35.60;100876.22;5031465;28;20053;-73
2022/04/19 05:16:46;;;;;;;9.38;3.10;;;;;;;9.09;34.87;100862.28;5030695;28;20149;-73
2022/04/19 05:19:13;;;;;;;8.35;3.88;;;;;;;9.00;35.18;100859.66;5030646;28;20128;-73
2022/04/19 05:21:44;;;;;;;9.63;3.50;;;;;;;8.99;35.12;100861.47;5030464;28;20049;-73
2022/04/19 05:24:10;;;;;;;9.30;3.40;;;;;;;8.75;35.54;100864.66;5030674;28;20049;-73
2022/04/19 05:26:37;;;;;;;11.98;4.13;;;;;;;8.78;35.56;100874.19;5030003;28;20124;-73
2022/04/19 05:29:04;;;;;;;6.70;3.33;;;;;;;8.01;37.04;100875.13;5031484;28;20045;-73
2022/04/19 05:31:30;;;;;;;11.02;3.55;;;;;;;8.60;36.23;100871.44;5031043;28;20132;-73
2022/04/19 05:33:57;;;;;;;6.25;3.95;;;;;;;8.44;36.43;100881.88;5031175;28;20053;-73
2022/04/19 05:36:23;;;;;;;8.68;3.80;;;;;;;8.40;36.39;100881.34;5029426;28;20552;-73
2022/04/19 05:38:52;;;;;;;9.57;4.03;;;;;;;8.80;35.67;100889.13;5033787;28;20071;-73
2022/04/19 05:41:23;;;;;;;12.77;3.63;;;;;;;8.99;35.58;100893.59;5027690;28;20401;-72
2022/04/19 05:43:50;;;;;;;4.60;2.65;;;;;;;8.46;36.58;100888.75;5032555;28;20068;-73
2022/04/19 05:46:17;;;;;;;13.07;4.78;;;;;;;9.30;35.05;100885.31;5029732;28;20489;-73
2022/04/19 05:48:44;;;;;;;8.88;3.65;;;;;;;9.70;34.64;100889.47;5030533;28;20049;-73
2022/04/19 05:51:11;;;;;;;12.68;4.85;;;;;;;9.48;34.88;100898.78;5031558;28;20479;-72
2022/04/19 05:53:39;;;;;;;19.77;4.47;;;;;;;9.27;35.30;100893.66;5030411;28;20079;-72
2022/04/19 05:56:06;;;;;;;10.18;3.78;;;;;;;9.52;34.71;100897.50;5031041;28;20065;-73
2022/04/19 05:58:32;;;;;;;12.10;4.63;;;;;;;9.34;34.85;100896.59;5030682;28;20060;-73
2022/04/19 06:00:59;;;;;;;9.68;3.95;;;;;;;9.23;35.14;100900.25;5030542;28;20042;-73
2022/04/19 06:06:10;;;;;;;15.20;4.03;;;;;;;9.38;34.92;100893.47;5030988;28;20072;-73
2022/04/19 06:08:37;;;;;;;10.80;4.03;;;;;;;9.75;34.15;100900.59;5031364;28;20068;-73
2022/04/19 06:11:03;;;;;;;10.30;4.05;;;;;;;9.49;34.47;100893.25;5031108;28;20449;-73
2022/04/19 06:13:30;;;;;;;8.05;3.63;;;;;;;9.88;33.67;100890.34;5029030;28;20072;-74
2022/04/19 06:15:56;;;;;;;8.57;4.10;;;;;;;9.72;33.92;100896.38;5029767;28;20046;-73
2022/04/19 06:18:23;;;;;;;10.88;4.03;;;;;;;9.74;33.51;100898.91;5029651;28;20468;-73
2022/04/19 06:20:53;;;;;;;6.72;3.63;;;;;;;10.41;32.67;100900.25;5029885;28;20050;-73
2022/04/19 06:23:20;;;;;;;10.27;3.65;;;;;;;10.43;32.33;100890.19;5029687;28;20049;-74
2022/04/19 06:25:46;;;;;;;11.90;4.10;;;;;;;10.39;32.23;100896.03;5030464;28;20072;-74
2022/04/19 06:28:13;;;;;;;7.85;4.03;;;;;;;10.66;31.54;100895.09;5030014;28;20132;-74
2022/04/19 06:30:39;;;;;;;8.85;3.75;;;;;;;10.59;31.52;100884.16;5029804;28;20076;-74
2022/04/19 06:33:06;;;;;;;11.65;4.88;;;;;;;9.59;32.96;100895.06;5029468;28;20124;-74
2022/04/19 06:35:32;;;;;;;13.55;4.18;;;;;;;10.19;32.53;100890.81;5030438;28;20128;-73
2022/04/19 06:37:59;;;;;;;9.25;4.30;;;;;;;9.83;32.28;100900.69;5030280;28;20041;-73
2022/04/19 06:40:25;;;;;;;9.15;4.20;;;;;;;10.44;31.83;100891.03;5030197;28;20057;-73
2022/04/19 06:42:52;;;;;;;7.07;4.13;;;;;;;11.05;30.85;100894.69;5030068;28;20116;-74
2022/04/19 06:45:18;;;;;;;9.00;4.47;;;;;;;11.71;29.49;100896.69;5030306;28;20052;-74
2022/04/19 06:47:45;;;;;;;7.95;3.97;;;;;;;12.46;28.41;100893.09;5030449;28;20494;-74
2022/04/19 06:50:12;;;;;;;10.65;4.75;;;;;;;12.53;28.13;100891.41;5024706;28;20049;-74
2022/04/19 06:52:38;;;;;;;12.18;5.05;;;;;;;12.87;27.47;100892.09;5030664;28;20049;-74
2022/04/19 06:55:05;;;;;;;9.25;4.70;;;;;;;11.94;28.76;100902.28;5030466;28;20105;-74
2022/04/19 06:57:35;;;;;;;10.10;4.40;;;;;;;13.06;27.32;100907.00;5029356;28;20088;-74
2022/04/19 07:00:04;;;;;;;10.95;4.60;;;;;;;12.87;27.57;100904.72;5030348;28;20124;-72
2022/04/19 07:02:30;;;;;;;9.23;5.00;;;;;;;13.14;27.30;100906.13;5029161;28;20144;-74
2022/04/19 07:04:57;;;;;;;8.27;4.35;;;;;;;12.97;27.14;100909.88;5030635;28;20045;-74
2022/04/19 07:07:23;;;;;;;11.45;4.40;;;;;;;12.92;27.32;100905.03;5030107;28;20052;-74
2022/04/19 07:09:50;;;;;;;11.73;4.68;;;;;;;12.72;28.04;100914.44;5030069;28;20072;-74
2022/04/19 07:12:18;;;;;;;9.90;4.72;;;;;;;14.49;25.66;100906.78;5033683;28;20134;-74
2022/04/19 07:14:44;;;;;;;7.88;4.22;;;;;;;14.87;25.27;100904.09;5033410;28;20099;-74
2022/04/19 07:17:11;;;;;;;9.32;4.65;;;;;;;14.92;24.94;100901.72;5034289;28;20120;-74
2022/04/19 07:28:01;;;;;;;11.00;4.85;;;;;;;14.69;24.02;100907.94;5028428;28;20080;-73
2022/04/19 07:30:28;;;;;;;11.10;4.70;;;;;;;15.02;23.64;100904.97;5032951;28;20072;-73
2022/04/19 07:32:56;;;;;;;11.77;4.88;;;;;;;15.12;23.22;100908.25;5025258;28;20095;-74
2022/04/19 07:35:23;;;;;;;11.77;5.78;;;;;;;14.69;23.57;100902.56;5033101;28;20069;-73
2022/04/19 07:37:52;;;;;;;11.77;4.88;;;;;;;15.06;23.28;100900.88;5032769;28;20052;-74
2022/04/19 07:40:18;;;;;;;15.13;4.40;;;;;;;15.07;22.63;100910.66;5031975;28;20049;-73
2022/04/19 07:42:45;;;;;;;11.95;4.75;;;;;;;15.68;22.11;100900.50;5032365;28;20077;-73
2022/04/19 07:45:12;;;;;;;9.98;4.97;;;;;;;16.29;21.34;100893.84;5032944;28;20490;-73
2022/04/19 07:47:38;;;;;;;9.95;4.68;;;;;;;16.10;21.74;100900.75;5032546;28;20103;-72
2022/04/19 07:50:05;;;;;;;10.07;4.45;;;;;;;15.98;21.23;100896.88;5033152;28;20124;-73
2022/04/19 07:52:31;;;;;;;7.72;3.83;;;;;;;15.57;21.19;100900.97;5032839;28;20095;-73
2022/04/19 07:54:58;;;;;;;6.60;3.47;;;;;;;16.04;21.06;100899.66;5032605;28;20132;-73
2022/04/19 07:57:24;;;;;;;9.25;4.30;;;;;;;16.49;20.69;100894.03;5027935;28;20042;-73
2022/04/19 07:59:54;;;;;;;9.85;3.90;;;;;;;16.33;20.36;100897.84;5032210;28;20041;-73
2022/04/19 08:02:21;;;;;;;9.85;3.20;;;;;;;16.72;20.03;100896.56;5032726;28;20045;-74
2022/04/19 08:04:47;;;;;;;6.28;3.13;;;;;;;14.54;20.90;100899.81;5031954;28;20441;-74
2022/04/19 08:07:14;;;;;;;8.75;3.05;;;;;;;14.16;21.69;100893.56;5032954;28;20135;-73
2022/04/19 08:09:40;;;;;;;4.78;2.40;;;;;;;14.21;22.12;100907.31;5031952;28;20098;-74
2022/04/19 08:12:12;;;;;;;4.95;2.90;;;;;;;15.35;20.98;100889.22;5030975;28;20045;-74
2022/04/19 08:14:41;;;;;;;4.53;2.55;;;;;;;16.04;20.33;100890.69;5032934;28;20120;-74
2022/04/19 08:17:07;;;;;;;9.32;3.67;;;;;;;15.87;20.41;100895.50;5032805;28;20046;-74
2022/04/19 08:19:34;;;;;;;7.25;2.58;;;;;;;15.29;21.06;100897.22;5030298;28;20049;-72
2022/04/19 08:22:01;;;;;;;6.35;2.92;;;;;;;15.96;20.50;100883.53;5031908;28;20041;-73
2022/04/19 08:24:28;;;;;;;8.45;2.95;;;;;;;15.72;20.94;100879.31;5031950;28;20120;-73
2022/04/19 08:26:54;;;;;;;8.63;2.67;;;;;;;17.00;19.80;100886.53;5030966;28;20176;-73
2022/04/19 08:29:21;;;;;;;8.02;2.45;;;;;;;16.59;19.84;100881.88;5031112;28;20538;-72
2022/04/19 08:31:47;;;;;;;14.13;2.47;;;;;;;16.90;19.12;100884.19;5032472;28;20045;-72
2022/04/19 08:34:14;;;;;;;6.35;2.08;;;;;;;16.03;20.32;100881.75;5031657;28;20052;-74
2022/04/19 08:36:42;;;;;;;6.68;2.17;;;;;;;17.04;19.27;100876.16;5032352;28;20045;-73
2022/04/19 08:39:09;;;;;;;6.57;2.15;;;;;;;17.79;18.63;100874.44;5030989;28;20069;-72
2022/04/19 08:41:37;;;;;;;5.05;2.65;;;;;;;17.76;18.73;100867.53;5032745;28;20068;-74
2022/04/19 08:44:04;;;;;;;7.25;2.40;;;;;;;16.31;20.26;100875.56;5031946;28;20057;-72
2022/04/19 08:46:37;;;;;;;5.82;2.47;;;;;;;16.76;19.91;100873.47;5031141;28;20488;-73
2022/04/19 08:49:04;;;;;;;5.25;2.05;;;;;;;16.14;19.78;100872.28;5030006;28;20096;-76
2022/04/19 08:51:36;;;;;;;4.30;1.65;;;;;;;16.23;19.85;100865.72;5031556;28;20049;-76
2022/04/19 08:59:36;;;;;;;5.70;2.50;;;;;;;17.76;19.24;100864.00;5031715;28;20436;-76
2022/04/19 09:02:05;;;;;;;3.78;2.22;;;;;;;18.59;18.81;100866.44;5028186;28;20128;-77
2022/04/19 09:04:31;;;;;;;5.50;1.83;;;;;;;19.11;18.10;100862.81;5031888;28;20407;-77
2022/04/19 09:06:59;;;;;;;3.88;1.60;;;;;;;18.57;18.01;100874.78;5026708;28;20394;-76
2022/04/19 09:09:27;;;;;;;4.78;2.33;;;;;;;18.48;18.32;100867.88;5032188;28;20080;-77
2022/04/19 09:12:06;;;;;;;3.90;1.90;;;;;;;19.13;17.91;100873.47;5031647;28;20057;-76
2022/04/19 09:14:33;;;;;;;7.53;1.98;;;;;;;18.71;18.24;100871.00;5020670;28;20054;-75
2022/04/19 09:17:05;;;;;;;9.05;1.85;;;;;;;18.42;18.69;100871.44;5031949;28;20045;-75
2022/04/19 09:19:42;;;;;;;;;;;;;;;;;;;;;
2022/04/19 09:22:09;;;;;;;5.78;2.33;;;;;;;16.68;20.22;100888.00;5031643;28;20079;-75
2022/04/19 09:24:37;;;;;;;4.68;2.33;;;;;;;17.72;19.50;100876.31;5006770;28;20526;-76
2022/04/19 09:27:03;;;;;;;6.40;1.95;;;;;;;17.36;19.48;100893.66;5035564;28;20390;-76
2022/04/19 09:29:30;;;;;;;4.40;2.00;;;;;;;15.97;20.79;100873.56;5031927;28;20056;-76
2022/04/19 09:31:58;;;;;;;5.90;1.60;;;;;;;17.04;19.89;100882.41;5030988;28;20045;-75
2022/04/19 09:34:30;;;;;;;3.75;1.38;;;;;;;16.81;20.04;100892.66;5031076;28;20132;-76
2022/04/19 09:37:10;;;;;;;6.25;1.63;;;;;;;17.03;19.92;100883.44;5031063;28;20100;-77
2022/04/19 09:39:41;;;;;;;4.63;1.70;;;;;;;16.36;20.31;100873.94;5027883;28;20048;-77
2022/04/19 09:42:09;;;;;;;6.88;2.47;;;;;;;16.82;20.27;100870.81;5031214;28;20045;-77
2022/04/19 09:44:45;;;;;;;7.15;1.98;;;;;;;16.85;20.26;100877.66;5023386;28;20060;-77
2022/04/19 09:47:13;;;;;;;4.82;1.70;;;;;;;16.52;20.21;100872.84;5030894;28;20045;-77
2022/04/19 09:49:53;;;;;;;4.03;1.50;;;;;;;17.43;19.44;100874.72;5031713;28;20495;-78
2022/04/19 09:52:23;;;;;;;5.18;1.83;;;;;;;17.75;19.06;100868.59;5031164;28;20050;-77
2022/04/19 09:55:08;;;;;;;5.55;1.60;;;;;;;17.76;18.80;100870.25;5031359;28;20052;-77
2022/04/19 09:57:39;;;;;;;5.70;1.70;;;;;;;18.55;18.20;100876.88;5031080;28;21090;-77
2022/04/19 10:00:08;;;;;;;3.92;1.30;;;;;;;19.46;17.44;100859.75;5027827;28;20060;-77
2022/04/19 10:08:11;;;;;;;2.35;1.15;;;;;;;18.62;17.52;100868.69;5031901;28;20103;-77
2022/04/19 10:10:38;;;;;;;2.67;1.50;;;;;;;17.13;18.90;100870.38;5032299;28;20480;-77
2022/04/19 10:13:05;;;;;;;3.67;1.35;;;;;;;15.91;20.14;100875.97;5032032;28;20292;-75
2022/04/19 10:15:36;;;;;;;3.20;1.35;;;;;;;15.30;21.20;100869.19;5031893;28;20045;-75
2022/04/19 10:18:04;;;;;;;2.47;1.50;;;;;;;16.23;20.43;100872.97;5031272;28;20042;-75
2022/04/19 10:20:33;;;;;;;5.72;1.63;;;;;;;15.76;20.91;100868.97;5031341;28;20077;-75
2022/04/19 10:23:09;;;;;;;8.90;2.03;;;;;;;15.77;21.06;100860.63;5031882;28;20042;-75
2022/04/19 10:25:43;;;;;;;6.55;1.38;;;;;;;15.70;21.38;100876.78;5031816;28;20060;-75
2022/04/19 10:28:15;;;;;;;4.32;1.67;;;;;;;15.55;21.29;100872.44;5030714;28;20053;-76
2022/04/19 10:30:51;;;;;;;6.45;1.73;;;;;;;16.87;20.52;100870.19;5031457;28;20045;-76
2022/04/19 10:33:50;;;;;;;6.00;1.50;;;;;;;17.27;19.86;100865.03;5029562;28;20061;-75
2022/04/19 10:36:21;;;;;;;9.48;1.95;;;;;;;16.81;20.51;100862.84;5032150;28;20537;-75
2022/04/19 10:39:11;;;;;;;6.23;1.63;;;;;;;16.72;20.37;100869.47;5029988;28;20042;-75
2022/04/19 10:42:01;;;;;;;3.38;1.50;;;;;;;16.90;20.29;100862.50;5029192;28;20053;-75
2022/04/19 10:44:52;;;;;;;5.05;1.30;;;;;;;17.05;20.62;100845.28;5030629;28;20054;-75
2022/04/19 10:47:20;;;;;;;3.42;1.50;;;;;;;17.55;19.83;100863.09;5012918;28;20128;-75
2022/04/19 10:49:53;;;;;;;4.03;1.40;;;;;;;17.63;19.72;100858.53;5023041;28;20116;-75
2022/04/19 10:52:35;;;;;;;3.85;1.33;;;;;;;16.51;20.43;100865.78;5019600;28;20075;-75
2022/04/19 10:55:17;;;;;;;5.50;1.50;;;;;;;16.95;20.14;100861.91;5034389;28;20485;-78
2022/04/19 10:58:08;;;;;;;4.95;1.20;;;;;;;17.36;20.11;100861.13;5034686;28;20381;-75
2022/04/19 11:00:52;;;;;;;6.80;1.80;;;;;;;17.30;20.20;100865.47;5034093;28;20101;-75
2022/04/19 11:03:34;;;;;;;2.42;1.30;;;;;;;16.74;20.90;100849.25;5032108;28;20060;-75
2022/04/19 11:06:09;;;;;;;7.22;1.23;;;;;;;16.55;20.84;100855.38;5034362;28;20048;-75
2022/04/19 11:08:37;;;;;;;8.63;2.60;;;;;;;17.66;20.00;100847.25;5025607;28;20470;-75
2022/04/19 11:11:20;;;;;;;3.05;1.58;;;;;;;16.35;20.68;100861.44;5047218;28;20072;-75
2022/04/19 11:14:35;;;;;;;8.07;1.67;;;;;;;16.47;20.27;100858.19;5023397;28;20049;-75
2022/04/19 11:17:43;;;;;;;4.20;1.60;;;;;;;15.59;21.20;100850.22;5033632;28;20045;-75
2022/04/19 11:20:16;;;;;;;3.05;1.75;;;;;;;14.59;22.28;100857.94;5011274;28;20540;-74
2022/04/19 11:22:55;;;;;;;5.97;1.80;;;;;;;15.32;21.87;100856.31;5000407;28;20484;-75
2022/04/19 11:25:40;;;;;;;7.25;1.85;;;;;;;14.63;22.98;100853.84;5012837;28;20541;-75
2022/04/19 11:28:09;;;;;;;6.13;1.40;;;;;;;15.40;22.03;100859.78;5011531;28;20486;-74
2022/04/19 11:30:36;;;;;;;4.90;1.55;;;;;;;15.36;21.89;100861.19;5011548;28;20549;-75
2022/04/19 11:33:05;;;;;;;4.10;1.23;;;;;;;15.01;22.30;100868.16;5011327;28;20236;-75
2022/04/19 11:35:32;;;;;;;4.57;1.38;;;;;;;14.86;22.73;100860.06;5011899;28;20153;-75
2022/04/19 11:38:04;;;;;;;3.47;1.25;;;;;;;15.07;22.48;100864.72;5011711;28;20100;-75
2022/04/19 11:49:09;;;;;;;3.47;1.77;;;;;;;15.40;22.38;100856.22;4992047;28;20046;-75
2022/04/19 11:51:36;;;;;;;8.05;1.90;;;;;;;15.41;22.52;100869.56;4981403;28;20495;-75
2022/04/19 11:54:03;;;;;;;4.55;2.30;;;;;;;15.36;22.66;100865.72;5002094;28;20052;-75
2022/04/19 11:56:31;;;;;;;6.78;1.50;;;;;;;15.94;21.99;100867.47;5023268;28;20531;-75
2022/04/19 11:59:00;;;;;;;4.32;1.88;;;;;;;15.36;22.68;100858.47;5034773;28;20107;-75
2022/04/19 12:01:30;;;;;;;8.05;1.90;;;;;;;15.04;23.31;100858.84;5030409;28;20049;-74
2022/04/19 12:03:56;;;;;;;5.22;1.77;;;;;;;16.10;22.10;100874.53;5031931;28;20046;-75
2022/04/19 12:06:23;;;;;;;4.35;1.50;;;;;;;15.10;23.02;100864.34;5033849;28;20064;-75
2022/04/19 12:08:51;;;;;;;9.07;1.50;;;;;;;15.21;23.35;100868.44;5030921;28;20041;-75
2022/04/19 12:11:29;;;;;;;6.90;2.15;;;;;;;14.84;23.73;100870.19;5033107;28;20052;-75
2022/04/19 12:13:56;;;;;;;1.98;1.33;;;;;;;13.57;25.49;100868.94;5032100;28;20085;-75
2022/04/19 12:16:33;;;;;;;5.03;1.55;;;;;;;14.62;24.56;100880.00;5033461;28;20055;-75
2022/04/19 12:19:02;;;;;;;5.65;2.08;;;;;;;14.76;24.21;100859.47;5030925;28;20714;-75
2022/04/19 12:21:45;;;;;;;4.40;1.58;;;;;;;14.68;24.59;100876.59;5047928;28;20045;-75
2022/04/19 12:24:17;;;;;;;10.40;2.13;;;;;;;15.11;23.76;100876.81;5030741;28;20108;-75
2022/04/19 12:26:43;;;;;;;7.15;2.00;;;;;;;14.28;24.70;100864.28;5031382;28;20073;-75